CardPricer.com
Folder.. - Oct 24 2012 01:09:25 AM
63T 119 Lillis.jpg63T 119 Lillis.jpg 18KB Oct 24 2012 01:09:08 AM63T 119 Lillis.jpg
63T 575 Cardwell.jpg63T 575 Cardwell.jpg 17KB Oct 24 2012 01:09:08 AM63T 575 Cardwell.jpg
63T 004 AL HR Leaders.jpg63T 004 AL HR Leaders.jpg 17KB Oct 24 2012 01:09:08 AM63T 004 AL HR Leaders.jpg
63T 042 Williams.jpg63T 042 Williams.jpg 17KB Oct 24 2012 01:09:08 AM63T 042 Williams.jpg
63T 535 Perry.jpg63T 535 Perry.jpg 14KB Oct 24 2012 01:09:08 AM63T 535 Perry.jpg
63T 191 Checklist 3.jpg63T 191 Checklist 3.jpg 20KB Oct 24 2012 01:09:08 AM63T 191 Checklist 3.jpg
63T 457 Clevenger.jpg63T 457 Clevenger.jpg 15KB Oct 24 2012 01:09:08 AM63T 457 Clevenger.jpg
63T 472 Brock.jpg63T 472 Brock.jpg 15KB Oct 24 2012 01:09:08 AM63T 472 Brock.jpg
63T 568 Sadowski.jpg63T 568 Sadowski.jpg 16KB Oct 24 2012 01:09:08 AM63T 568 Sadowski.jpg
63T 142 WS Game 1.jpg63T 142 WS Game 1.jpg 15KB Oct 24 2012 01:09:08 AM63T 142 WS Game 1.jpg
63T 052 Schilling.jpg63T 052 Schilling.jpg 12KB Oct 24 2012 01:09:08 AM63T 052 Schilling.jpg
63T 135 Ashburn.jpg63T 135 Ashburn.jpg 14KB Oct 24 2012 01:09:08 AM63T 135 Ashburn.jpg
63T 447 Mantilla.jpg63T 447 Mantilla.jpg 14KB Oct 24 2012 01:09:08 AM63T 447 Mantilla.jpg
63T 345 Robinson.jpg63T 345 Robinson.jpg 14KB Oct 24 2012 01:09:08 AM63T 345 Robinson.jpg
63T 015 Hubbs.jpg63T 015 Hubbs.jpg 16KB Oct 24 2012 01:09:08 AM63T 015 Hubbs.jpg
63T 505 Flood.jpg63T 505 Flood.jpg 14KB Oct 24 2012 01:09:08 AM63T 505 Flood.jpg
63T 105 Fairly.jpg63T 105 Fairly.jpg 15KB Oct 24 2012 01:09:08 AM63T 105 Fairly.jpg
63T 317 McDowell.jpg63T 317 McDowell.jpg 15KB Oct 24 2012 01:09:08 AM63T 317 McDowell.jpg
63T 501 Azcue.jpg63T 501 Azcue.jpg 17KB Oct 24 2012 01:09:08 AM63T 501 Azcue.jpg
63T 474 Fisher.jpg63T 474 Fisher.jpg 15KB Oct 24 2012 01:09:08 AM63T 474 Fisher.jpg
63T 489 Toth.jpg63T 489 Toth.jpg 15KB Oct 24 2012 01:09:08 AM63T 489 Toth.jpg
63T 511 Neal.jpg63T 511 Neal.jpg 14KB Oct 24 2012 01:09:08 AM63T 511 Neal.jpg
63T 306 Star Receivers.jpg63T 306 Star Receivers.jpg 17KB Oct 24 2012 01:09:08 AM63T 306 Star Receivers.jpg
63T 073 Bragan.jpg63T 073 Bragan.jpg 15KB Oct 24 2012 01:09:08 AM63T 073 Bragan.jpg
63T 526 Hall.jpg63T 526 Hall.jpg 14KB Oct 24 2012 01:09:08 AM63T 526 Hall.jpg
63T 555 Blanchard.jpg63T 555 Blanchard.jpg 19KB Oct 24 2012 01:09:08 AM63T 555 Blanchard.jpg
63T 542 Klimchock.jpg63T 542 Klimchock.jpg 14KB Oct 24 2012 01:09:08 AM63T 542 Klimchock.jpg
63T 242 Power Plus.jpg63T 242 Power Plus.jpg 15KB Oct 24 2012 01:09:08 AM63T 242 Power Plus.jpg
63T 551 Klaus.jpg63T 551 Klaus.jpg 18KB Oct 24 2012 01:09:08 AM63T 551 Klaus.jpg
63T 030 Kuenn.jpg63T 030 Kuenn.jpg 16KB Oct 24 2012 01:09:08 AM63T 030 Kuenn.jpg
63T 451 Indians Team.jpg63T 451 Indians Team.jpg 17KB Oct 24 2012 01:09:08 AM63T 451 Indians Team.jpg
63T 208 Rookie Stars.jpg63T 208 Rookie Stars.jpg 29KB Oct 24 2012 01:09:08 AM63T 208 Rookie Stars.jpg
63T 496 Rookie Stars.jpg63T 496 Rookie Stars.jpg 15KB Oct 24 2012 01:09:08 AM63T 496 Rookie Stars.jpg
63T 528 Willey.jpg63T 528 Willey.jpg 15KB Oct 24 2012 01:09:08 AM63T 528 Willey.jpg
63T 019 Burnside.jpg63T 019 Burnside.jpg 20KB Oct 24 2012 01:09:08 AM63T 019 Burnside.jpg
63T 157 Segui.jpg63T 157 Segui.jpg 14KB Oct 24 2012 01:09:08 AM63T 157 Segui.jpg
63T 120 Maris.jpg63T 120 Maris.jpg 13KB Oct 24 2012 01:09:08 AM63T 120 Maris.jpg
63T 146 WS Game 5.jpg63T 146 WS Game 5.jpg 17KB Oct 24 2012 01:09:08 AM63T 146 WS Game 5.jpg
63T 538 Brunet.jpg63T 538 Brunet.jpg 7KB Oct 24 2012 01:09:08 AM63T 538 Brunet.jpg
63T 064 McAuliffe.jpg63T 064 McAuliffe.jpg 20KB Oct 24 2012 01:09:08 AM63T 064 McAuliffe.jpg
63T 523 Kunkel.jpg63T 523 Kunkel.jpg 13KB Oct 24 2012 01:09:08 AM63T 523 Kunkel.jpg
63T 151 Pirates Team.jpg63T 151 Pirates Team.jpg 17KB Oct 24 2012 01:09:08 AM63T 151 Pirates Team.jpg
63T 300 Mays.jpg63T 300 Mays.jpg 22KB Oct 24 2012 01:09:08 AM63T 300 Mays.jpg
63T 419 Stallard.jpg63T 419 Stallard.jpg 14KB Oct 24 2012 01:09:08 AM63T 419 Stallard.jpg
63T 068 Friendly Foes.jpg63T 068 Friendly Foes.jpg 16KB Oct 24 2012 01:09:08 AM63T 068 Friendly Foes.jpg
63T 018 Buc Blasters.jpg63T 018 Buc Blasters.jpg 32KB Oct 24 2012 01:09:08 AM63T 018 Buc Blasters.jpg
63T 443 Piersall.jpg63T 443 Piersall.jpg 15KB Oct 24 2012 01:09:08 AM63T 443 Piersall.jpg
63T 214 Pena.jpg63T 214 Pena.jpg 15KB Oct 24 2012 01:09:08 AM63T 214 Pena.jpg
63T 382 Houk.jpg63T 382 Houk.jpg 15KB Oct 24 2012 01:09:08 AM63T 382 Houk.jpg
63T 275 Mathews.jpg63T 275 Mathews.jpg 18KB Oct 24 2012 01:09:08 AM63T 275 Mathews.jpg
63T 504 Johnson.jpg63T 504 Johnson.jpg 14KB Oct 24 2012 01:09:08 AM63T 504 Johnson.jpg
63T 510 McBride.jpg63T 510 McBride.jpg 14KB Oct 24 2012 01:09:08 AM63T 510 McBride.jpg
63T 205 Aparicio.jpg63T 205 Aparicio.jpg 15KB Oct 24 2012 01:09:08 AM63T 205 Aparicio.jpg
63T 216 Conley.jpg63T 216 Conley.jpg 14KB Oct 24 2012 01:09:08 AM63T 216 Conley.jpg
63T 328 Williams.jpg63T 328 Williams.jpg 14KB Oct 24 2012 01:09:08 AM63T 328 Williams.jpg
63T 067 Charles.jpg63T 067 Charles.jpg 12KB Oct 24 2012 01:09:08 AM63T 067 Charles.jpg
63T 477 Clendenon.jpg63T 477 Clendenon.jpg 15KB Oct 24 2012 01:09:08 AM63T 477 Clendenon.jpg
63T 154 Alston.jpg63T 154 Alston.jpg 16KB Oct 24 2012 01:09:08 AM63T 154 Alston.jpg
63T 265 Pinson.jpg63T 265 Pinson.jpg 15KB Oct 24 2012 01:09:08 AM63T 265 Pinson.jpg
63T 452 Schultz.jpg63T 452 Schultz.jpg 18KB Oct 24 2012 01:09:08 AM63T 452 Schultz.jpg
63T 570 Bolling.jpg63T 570 Bolling.jpg 19KB Oct 24 2012 01:09:08 AM63T 570 Bolling.jpg
63T 218 Tiger Twirlers.jpg63T 218 Tiger Twirlers.jpg 16KB Oct 24 2012 01:09:08 AM63T 218 Tiger Twirlers.jpg
63T 530 Mossi.jpg63T 530 Mossi.jpg 15KB Oct 24 2012 01:09:08 AM63T 530 Mossi.jpg
63T 240 Colavito.jpg63T 240 Colavito.jpg 15KB Oct 24 2012 01:09:08 AM63T 240 Colavito.jpg
63T 394 McCarver.jpg63T 394 McCarver.jpg 16KB Oct 24 2012 01:09:08 AM63T 394 McCarver.jpg
63T 558 Rookie Stars.jpg63T 558 Rookie Stars.jpg 20KB Oct 24 2012 01:09:08 AM63T 558 Rookie Stars.jpg
63T 514 Osborne.jpg63T 514 Osborne.jpg 18KB Oct 24 2012 01:09:08 AM63T 514 Osborne.jpg
63T 563 McCormick.jpg63T 563 McCormick.jpg 17KB Oct 24 2012 01:09:08 AM63T 563 McCormick.jpg
63T 463 Schaffernoth.jpg63T 463 Schaffernoth.jpg 14KB Oct 24 2012 01:09:08 AM63T 463 Schaffernoth.jpg
63T 488 Adair.jpg63T 488 Adair.jpg 14KB Oct 24 2012 01:09:08 AM63T 488 Adair.jpg
63T 543 Snyder.jpg63T 543 Snyder.jpg 19KB Oct 24 2012 01:09:08 AM63T 543 Snyder.jpg
63T 362 Checklist 5.jpg63T 362 Checklist 5.jpg 21KB Oct 24 2012 01:09:08 AM63T 362 Checklist 5.jpg
63T 415 Gibson.jpg63T 415 Gibson.jpg 15KB Oct 24 2012 01:09:08 AM63T 415 Gibson.jpg
63T 130 Groat.jpg63T 130 Groat.jpg 14KB Oct 24 2012 01:09:08 AM63T 130 Groat.jpg
63T 464 Aspromonte.jpg63T 464 Aspromonte.jpg 14KB Oct 24 2012 01:09:08 AM63T 464 Aspromonte.jpg
63T 043 Veteran Masters.jpg63T 043 Veteran Masters.jpg 16KB Oct 24 2012 01:09:08 AM63T 043 Veteran Masters.jpg
63T 556 Worthington.jpg63T 556 Worthington.jpg 10KB Oct 24 2012 01:09:08 AM63T 556 Worthington.jpg
63T 131 Senators Team.jpg63T 131 Senators Team.jpg 15KB Oct 24 2012 01:09:08 AM63T 131 Senators Team.jpg
63T 486 Sadecki.jpg63T 486 Sadecki.jpg 13KB Oct 24 2012 01:09:08 AM63T 486 Sadecki.jpg
63T 138 Pride of NL.jpg63T 138 Pride of NL.jpg 16KB Oct 24 2012 01:09:08 AM63T 138 Pride of NL.jpg
63T 534 Walters.jpg63T 534 Walters.jpg 18KB Oct 24 2012 01:09:08 AM63T 534 Walters.jpg
63T 503 Braves Team.jpg63T 503 Braves Team.jpg 8KB Oct 24 2012 01:09:08 AM63T 503 Braves Team.jpg
63T 210 Koufax.jpg63T 210 Koufax.jpg 15KB Oct 24 2012 01:09:08 AM63T 210 Koufax.jpg
63T 552 Tigers Tea,.jpg63T 552 Tigers Tea,.jpg 19KB Oct 24 2012 01:09:08 AM63T 552 Tigers Tea,.jpg
63T 459 LeMay.jpg63T 459 LeMay.jpg 14KB Oct 24 2012 01:09:08 AM63T 459 LeMay.jpg
63T 169 Rookie Stars.jpg63T 169 Rookie Stars.jpg 17KB Oct 24 2012 01:09:08 AM63T 169 Rookie Stars.jpg
63T 446 Ford.jpg63T 446 Ford.jpg 13KB Oct 24 2012 01:09:08 AM63T 446 Ford.jpg
63T 431 Checklist 6.jpg63T 431 Checklist 6.jpg 20KB Oct 24 2012 01:09:08 AM63T 431 Checklist 6.jpg
63T 567 Duffalo.jpg63T 567 Duffalo.jpg 19KB Oct 24 2012 01:09:08 AM63T 567 Duffalo.jpg
63T 499 Martin.jpg63T 499 Martin.jpg 13KB Oct 24 2012 01:09:08 AM63T 499 Martin.jpg
63T 541 Moeller.jpg63T 541 Moeller.jpg 14KB Oct 24 2012 01:09:08 AM63T 541 Moeller.jpg
63T 566 Cook.jpg63T 566 Cook.jpg 17KB Oct 24 2012 01:09:08 AM63T 566 Cook.jpg
63T 337 Dodgers Team.jpg63T 337 Dodgers Team.jpg 17KB Oct 24 2012 01:09:08 AM63T 337 Dodgers Team.jpg
63T 233 Stengel.jpg63T 233 Stengel.jpg 14KB Oct 24 2012 01:09:08 AM63T 233 Stengel.jpg
63T 141 Mota.jpg63T 141 Mota.jpg 17KB Oct 24 2012 01:09:08 AM63T 141 Mota.jpg
63T 519 Raymond.jpg63T 519 Raymond.jpg 14KB Oct 24 2012 01:09:08 AM63T 519 Raymond.jpg
63T 513 Geiger.jpg63T 513 Geiger.jpg 15KB Oct 24 2012 01:09:08 AM63T 513 Geiger.jpg
63T 573 Veal.jpg63T 573 Veal.jpg 17KB Oct 24 2012 01:09:08 AM63T 573 Veal.jpg
63T 485 Landis.jpg63T 485 Landis.jpg 13KB Oct 24 2012 01:09:08 AM63T 485 Landis.jpg
63T 521 Pfister.jpg63T 521 Pfister.jpg 15KB Oct 24 2012 01:09:08 AM63T 521 Pfister.jpg
63T 550 Snider.jpg63T 550 Snider.jpg 24KB Oct 24 2012 01:09:08 AM63T 550 Snider.jpg
63T 274 Checklist 4.jpg63T 274 Checklist 4.jpg 22KB Oct 24 2012 01:09:08 AM63T 274 Checklist 4.jpg
63T 569 Arroyo.jpg63T 569 Arroyo.jpg 19KB Oct 24 2012 01:09:08 AM63T 569 Arroyo.jpg
63T 439 Zimmer.jpg63T 439 Zimmer.jpg 14KB Oct 24 2012 01:09:08 AM63T 439 Zimmer.jpg
63T 310 Davis.jpg63T 310 Davis.jpg 12KB Oct 24 2012 01:09:08 AM63T 310 Davis.jpg
63T 161 Torre.jpg63T 161 Torre.jpg 8KB Oct 24 2012 01:09:08 AM63T 161 Torre.jpg
63T 517 Woodeschick.jpg63T 517 Woodeschick.jpg 14KB Oct 24 2012 01:09:08 AM63T 517 Woodeschick.jpg
63T 565 Sherry.jpg63T 565 Sherry.jpg 20KB Oct 24 2012 01:09:08 AM63T 565 Sherry.jpg
63T 340 Berra.jpg63T 340 Berra.jpg 15KB Oct 24 2012 01:09:08 AM63T 340 Berra.jpg
63T 420 Richardson.jpg63T 420 Richardson.jpg 18KB Oct 24 2012 01:09:08 AM63T 420 Richardson.jpg
63T 533 Shantz.jpg63T 533 Shantz.jpg 14KB Oct 24 2012 01:09:08 AM63T 533 Shantz.jpg
63T 449 Tartabull.jpg63T 449 Tartabull.jpg 15KB Oct 24 2012 01:09:08 AM63T 449 Tartabull.jpg
63T 123 Howard.jpg63T 123 Howard.jpg 13KB Oct 24 2012 01:09:08 AM63T 123 Howard.jpg
63T 525 Fox.jpg63T 525 Fox.jpg 15KB Oct 24 2012 01:09:08 AM63T 525 Fox.jpg
63T 487 Roseboro.jpg63T 487 Roseboro.jpg 13KB Oct 24 2012 01:09:08 AM63T 487 Roseboro.jpg
63T 498 Kasko.jpg63T 498 Kasko.jpg 15KB Oct 24 2012 01:09:08 AM63T 498 Kasko.jpg
63T 046 Aaron.jpg63T 046 Aaron.jpg 14KB Oct 24 2012 01:09:08 AM63T 046 Aaron.jpg
63T 202 Red Sox Team.jpg63T 202 Red Sox Team.jpg 16KB Oct 24 2012 01:09:08 AM63T 202 Red Sox Team.jpg
63T 462 Post.jpg63T 462 Post.jpg 15KB Oct 24 2012 01:09:08 AM63T 462 Post.jpg
63T 493 Bond.jpg63T 493 Bond.jpg 17KB Oct 24 2012 01:09:08 AM63T 493 Bond.jpg
63T 571 Klippstein.jpg63T 571 Klippstein.jpg 16KB Oct 24 2012 01:09:08 AM63T 571 Klippstein.jpg
63T 546 Reniff.jpg63T 546 Reniff.jpg 16KB Oct 24 2012 01:09:08 AM63T 546 Reniff.jpg
63T 108 Wilhelm.jpg63T 108 Wilhelm.jpg 15KB Oct 24 2012 01:09:08 AM63T 108 Wilhelm.jpg
63T 458 Lopez.jpg63T 458 Lopez.jpg 13KB Oct 24 2012 01:09:08 AM63T 458 Lopez.jpg
63T 245 Hodges.jpg63T 245 Hodges.jpg 15KB Oct 24 2012 01:09:08 AM63T 245 Hodges.jpg
63T 495 Thomas.jpg63T 495 Thomas.jpg 13KB Oct 24 2012 01:09:08 AM63T 495 Thomas.jpg
63T 397 A's Team.jpg63T 397 A's Team.jpg 17KB Oct 24 2012 01:09:08 AM63T 397 A's Team.jpg
63T 054 Rookie Stars.jpg63T 054 Rookie Stars.jpg 17KB Oct 24 2012 01:09:08 AM63T 054 Rookie Stars.jpg
63T 390 Aaron.jpg63T 390 Aaron.jpg 26KB Oct 24 2012 01:09:08 AM63T 390 Aaron.jpg
63T 320 Spahn.jpg63T 320 Spahn.jpg 21KB Oct 24 2012 01:09:08 AM63T 320 Spahn.jpg
63T 506 Green.jpg63T 506 Green.jpg 15KB Oct 24 2012 01:09:08 AM63T 506 Green.jpg
63T 461 Bass.jpg63T 461 Bass.jpg 14KB Oct 24 2012 01:09:08 AM63T 461 Bass.jpg
63T 471 Retzer.jpg63T 471 Retzer.jpg 16KB Oct 24 2012 01:09:08 AM63T 471 Retzer.jpg
63T 144 WS Game 3.jpg63T 144 WS Game 3.jpg 17KB Oct 24 2012 01:09:08 AM63T 144 WS Game 3.jpg
63T 398 Powell.jpg63T 398 Powell.jpg 16KB Oct 24 2012 01:09:08 AM63T 398 Powell.jpg
63T 478 Brown.jpg63T 478 Brown.jpg 14KB Oct 24 2012 01:09:08 AM63T 478 Brown.jpg
63T 353 Williams.jpg63T 353 Williams.jpg 14KB Oct 24 2012 01:09:08 AM63T 353 Williams.jpg
63T 539 Causey.jpg63T 539 Causey.jpg 15KB Oct 24 2012 01:09:08 AM63T 539 Causey.jpg
63T 454 Fowler.jpg63T 454 Fowler.jpg 16KB Oct 24 2012 01:09:08 AM63T 454 Fowler.jpg
63T 288 White Sox Team.jpg63T 288 White Sox Team.jpg 19KB Oct 24 2012 01:09:08 AM63T 288 White Sox Team.jpg
63T 548 Satriano.jpg63T 548 Satriano.jpg 18KB Oct 24 2012 01:09:08 AM63T 548 Satriano.jpg
63T 473 Mets Team.jpg63T 473 Mets Team.jpg 15KB Oct 24 2012 01:09:08 AM63T 473 Mets Team.jpg
63T 148 WS Summary.jpg63T 148 WS Summary.jpg 16KB Oct 24 2012 01:09:08 AM63T 148 WS Summary.jpg
63T 125 Roberts.jpg63T 125 Roberts.jpg 18KB Oct 24 2012 01:09:08 AM63T 125 Roberts.jpg
63T 222 Cubs Team.jpg63T 222 Cubs Team.jpg 16KB Oct 24 2012 01:09:08 AM63T 222 Cubs Team.jpg
63T 049 Maxvill.jpg63T 049 Maxvill.jpg 14KB Oct 24 2012 01:09:08 AM63T 049 Maxvill.jpg
63T 515 Elston.jpg63T 515 Elston.jpg 14KB Oct 24 2012 01:09:08 AM63T 515 Elston.jpg
63T 532 Boros.jpg63T 532 Boros.jpg 14KB Oct 24 2012 01:09:08 AM63T 532 Boros.jpg
63T 561 de la Hoz.jpg63T 561 de la Hoz.jpg 18KB Oct 24 2012 01:09:08 AM63T 561 de la Hoz.jpg
63T 229 Davis.jpg63T 229 Davis.jpg 15KB Oct 24 2012 01:09:08 AM63T 229 Davis.jpg
63T 324 Rookie Stars.jpg63T 324 Rookie Stars.jpg 15KB Oct 24 2012 01:09:08 AM63T 324 Rookie Stars.jpg
63T 524 Cardinals Team.jpg63T 524 Cardinals Team.jpg 17KB Oct 24 2012 01:09:08 AM63T 524 Cardinals Team.jpg
63T 360 Drysdale.jpg63T 360 Drysdale.jpg 15KB Oct 24 2012 01:09:08 AM63T 360 Drysdale.jpg
63T 470 Tresh.jpg63T 470 Tresh.jpg 14KB Oct 24 2012 01:09:08 AM63T 470 Tresh.jpg
63T 450 Friend.jpg63T 450 Friend.jpg 14KB Oct 24 2012 01:09:08 AM63T 450 Friend.jpg
63T 564 Banks.jpg63T 564 Banks.jpg 19KB Oct 24 2012 01:09:08 AM63T 564 Banks.jpg
63T 465 Estrada.jpg63T 465 Estrada.jpg 7KB Oct 24 2012 01:09:08 AM63T 465 Estrada.jpg
63T 126 Uecker.jpg63T 126 Uecker.jpg 15KB Oct 24 2012 01:09:08 AM63T 126 Uecker.jpg
63T 003 NL HR Leaders.jpg63T 003 NL HR Leaders.jpg 16KB Oct 24 2012 01:09:08 AM63T 003 NL HR Leaders.jpg
63T 559 Murtaugh.jpg63T 559 Murtaugh.jpg 17KB Oct 24 2012 01:09:08 AM63T 559 Murtaugh.jpg
63T 469 Hook.jpg63T 469 Hook.jpg 17KB Oct 24 2012 01:09:08 AM63T 469 Hook.jpg
63T 494 Regan.jpg63T 494 Regan.jpg 13KB Oct 24 2012 01:09:08 AM63T 494 Regan.jpg
63T 086 Maxwell.jpg63T 086 Maxwell.jpg 11KB Oct 24 2012 01:09:08 AM63T 086 Maxwell.jpg
63T 247 Yankees Team.jpg63T 247 Yankees Team.jpg 9KB Oct 24 2012 01:09:08 AM63T 247 Yankees Team.jpg
63T 347 Torre.jpg63T 347 Torre.jpg 15KB Oct 24 2012 01:09:08 AM63T 347 Torre.jpg
63T 058 Will.jpg63T 058 Will.jpg 13KB Oct 24 2012 01:09:08 AM63T 058 Will.jpg
63T 516 Goldy.jpg63T 516 Goldy.jpg 17KB Oct 24 2012 01:09:08 AM63T 516 Goldy.jpg
63T 005 NL ERA Leaders.jpg63T 005 NL ERA Leaders.jpg 16KB Oct 24 2012 01:09:08 AM63T 005 NL ERA Leaders.jpg
63T 557 Barragan.jpg63T 557 Barragan.jpg 16KB Oct 24 2012 01:09:08 AM63T 557 Barragan.jpg
63T 527 Sadowski.jpg63T 527 Sadowski.jpg 14KB Oct 24 2012 01:09:08 AM63T 527 Sadowski.jpg
63T 228 Rookie Stars.jpg63T 228 Rookie Stars.jpg 16KB Oct 24 2012 01:09:08 AM63T 228 Rookie Stars.jpg
63T 002 AL Batting Leaders.jpg63T 002 AL Batting Leaders.jpg 16KB Oct 24 2012 01:09:08 AM63T 002 AL Batting Leaders.jpg
63T 547 Bell.jpg63T 547 Bell.jpg 20KB Oct 24 2012 01:09:08 AM63T 547 Bell.jpg
63T 170 Adcock.jpg63T 170 Adcock.jpg 15KB Oct 24 2012 01:09:08 AM63T 170 Adcock.jpg
63T 445 Cash.jpg63T 445 Cash.jpg 15KB Oct 24 2012 01:09:08 AM63T 445 Cash.jpg
63T 006 AL ERA Leaders.jpg63T 006 AL ERA Leaders.jpg 16KB Oct 24 2012 01:09:08 AM63T 006 AL ERA Leaders.jpg
63T 537 Rookie Stars.jpg63T 537 Rookie Stars.jpg 20KB Oct 24 2012 01:09:08 AM63T 537 Rookie Stars.jpg
63T 361 Boyer.jpg63T 361 Boyer.jpg 15KB Oct 24 2012 01:09:08 AM63T 361 Boyer.jpg
63T 484 Long.jpg63T 484 Long.jpg 14KB Oct 24 2012 01:09:08 AM63T 484 Long.jpg
63T 080 Gilliam.jpg63T 080 Gilliam.jpg 13KB Oct 24 2012 01:09:08 AM63T 080 Gilliam.jpg
63T 401 Bouton.jpg63T 401 Bouton.jpg 13KB Oct 24 2012 01:09:08 AM63T 401 Bouton.jpg
63T 163 Larsen.jpg63T 163 Larsen.jpg 15KB Oct 24 2012 01:09:09 AM63T 163 Larsen.jpg
63T 025 Kaline.jpg63T 025 Kaline.jpg 15KB Oct 24 2012 01:09:09 AM63T 025 Kaline.jpg
63T 544 Staub.jpg63T 544 Staub.jpg 12KB Oct 24 2012 01:09:09 AM63T 544 Staub.jpg
63T 032 Gonzales.jpg63T 032 Gonzales.jpg 12KB Oct 24 2012 01:09:09 AM63T 032 Gonzales.jpg
63T 553 Rookie Stars.jpg63T 553 Rookie Stars.jpg 19KB Oct 24 2012 01:09:09 AM63T 553 Rookie Stars.jpg
63T 190 Minoso.jpg63T 190 Minoso.jpg 15KB Oct 24 2012 01:09:09 AM63T 190 Minoso.jpg
63T 183 Pepitone.jpg63T 183 Pepitone.jpg 15KB Oct 24 2012 01:09:09 AM63T 183 Pepitone.jpg
63T 483 Owens.jpg63T 483 Owens.jpg 13KB Oct 24 2012 01:09:09 AM63T 483 Owens.jpg
63T 549 Rookie Stars.jpg63T 549 Rookie Stars.jpg 20KB Oct 24 2012 01:09:09 AM63T 549 Rookie Stars.jpg
63T 312 Colts Team.jpg63T 312 Colts Team.jpg 20KB Oct 24 2012 01:09:09 AM63T 312 Colts Team.jpg
63T 480 Monbouquette.jpg63T 480 Monbouquette.jpg 14KB Oct 24 2012 01:09:09 AM63T 480 Monbouquette.jpg
63T 008 AL Pitching Leaders.jpg63T 008 AL Pitching Leaders.jpg 16KB Oct 24 2012 01:09:09 AM63T 008 AL Pitching Leaders.jpg
63T 264 Linz.jpg63T 264 Linz.jpg 19KB Oct 24 2012 01:09:09 AM63T 264 Linz.jpg
63T 200 Mantle.jpg63T 200 Mantle.jpg 13KB Oct 24 2012 01:09:09 AM63T 200 Mantle.jpg
63T 531 Mele.jpg63T 531 Mele.jpg 13KB Oct 24 2012 01:09:09 AM63T 531 Mele.jpg
63T 518 Blasingame.jpg63T 518 Blasingame.jpg 14KB Oct 24 2012 01:09:09 AM63T 518 Blasingame.jpg
63T 545 Pagan.jpg63T 545 Pagan.jpg 19KB Oct 24 2012 01:09:09 AM63T 545 Pagan.jpg
63T 460 Crandall.jpg63T 460 Crandall.jpg 17KB Oct 24 2012 01:09:09 AM63T 460 Crandall.jpg
63T 572 Spring.jpg63T 572 Spring.jpg 14KB Oct 24 2012 01:09:09 AM63T 572 Spring.jpg
63T 522 Rookie Stars.jpg63T 522 Rookie Stars.jpg 16KB Oct 24 2012 01:09:09 AM63T 522 Rookie Stars.jpg
63T 227 Grant.jpg63T 227 Grant.jpg 15KB Oct 24 2012 01:09:09 AM63T 227 Grant.jpg
63T 423 Hobaugh.jpg63T 423 Hobaugh.jpg 16KB Oct 24 2012 01:09:09 AM63T 423 Hobaugh.jpg
63T 482 Torres.jpg63T 482 Torres.jpg 14KB Oct 24 2012 01:09:09 AM63T 482 Torres.jpg
63T 468 Hardy.jpg63T 468 Hardy.jpg 13KB Oct 24 2012 01:09:09 AM63T 468 Hardy.jpg
63T 270 Alou.jpg63T 270 Alou.jpg 14KB Oct 24 2012 01:09:09 AM63T 270 Alou.jpg
63T 536 Larker.jpg63T 536 Larker.jpg 15KB Oct 24 2012 01:09:09 AM63T 536 Larker.jpg
63T 491 Craft.jpg63T 491 Craft.jpg 13KB Oct 24 2012 01:09:09 AM63T 491 Craft.jpg
63T 576 Temple.jpg63T 576 Temple.jpg 15KB Oct 24 2012 01:09:09 AM63T 576 Temple.jpg
63T 010 AL Strikeout Leaders.jpg63T 010 AL Strikeout Leaders.jpg 16KB Oct 24 2012 01:09:09 AM63T 010 AL Strikeout Leaders.jpg
63T 039 Angels Team.jpg63T 039 Angels Team.jpg 17KB Oct 24 2012 01:09:09 AM63T 039 Angels Team.jpg
63T 492 Wickersham.jpg63T 492 Wickersham.jpg 14KB Oct 24 2012 01:09:09 AM63T 492 Wickersham.jpg
63T 502 Spencer.jpg63T 502 Spencer.jpg 14KB Oct 24 2012 01:09:09 AM63T 502 Spencer.jpg
63T 165 Kaat.jpg63T 165 Kaat.jpg 15KB Oct 24 2012 01:09:09 AM63T 165 Kaat.jpg
63T 147 WS Game 6.jpg63T 147 WS Game 6.jpg 17KB Oct 24 2012 01:09:09 AM63T 147 WS Game 6.jpg
63T 562 Rookie Stars.jpg63T 562 Rookie Stars.jpg 18KB Oct 24 2012 01:09:09 AM63T 562 Rookie Stars.jpg
63T 290 White.jpg63T 290 White.jpg 13KB Oct 24 2012 01:09:09 AM63T 290 White.jpg
63T 239 Haddix.jpg63T 239 Haddix.jpg 14KB Oct 24 2012 01:09:09 AM63T 239 Haddix.jpg
63T 453 Wood.jpg63T 453 Wood.jpg 14KB Oct 24 2012 01:09:09 AM63T 453 Wood.jpg
63T 520 Cepeda.jpg63T 520 Cepeda.jpg 15KB Oct 24 2012 01:09:09 AM63T 520 Cepeda.jpg
63T 479 Brinkman.jpg63T 479 Brinkman.jpg 14KB Oct 24 2012 01:09:09 AM63T 479 Brinkman.jpg
63T 507 Sheldon.jpg63T 507 Sheldon.jpg 15KB Oct 24 2012 01:09:09 AM63T 507 Sheldon.jpg
63T 554 Fischer.jpg63T 554 Fischer.jpg 18KB Oct 24 2012 01:09:09 AM63T 554 Fischer.jpg
63T 497 Daniels.jpg63T 497 Daniels.jpg 15KB Oct 24 2012 01:09:09 AM63T 497 Daniels.jpg
63T 456 Coker.jpg63T 456 Coker.jpg 14KB Oct 24 2012 01:09:09 AM63T 456 Coker.jpg
63T 343 Pesky.jpg63T 343 Pesky.jpg 12KB Oct 24 2012 01:09:09 AM63T 343 Pesky.jpg
63T 455 Amaro.jpg63T 455 Amaro.jpg 14KB Oct 24 2012 01:09:09 AM63T 455 Amaro.jpg
63T 001 NL Batting Leaders.jpg63T 001 NL Batting Leaders.jpg 16KB Oct 24 2012 01:09:09 AM63T 001 NL Batting Leaders.jpg
63T 500 Killebrew.jpg63T 500 Killebrew.jpg 7KB Oct 24 2012 01:09:09 AM63T 500 Killebrew.jpg
63T 007 NL Pitching Leaders.jpg63T 007 NL Pitching Leaders.jpg 15KB Oct 24 2012 01:09:09 AM63T 007 NL Pitching Leaders.jpg
63T 180 Skowron.jpg63T 180 Skowron.jpg 15KB Oct 24 2012 01:09:09 AM63T 180 Skowron.jpg
63T 508 Savage.jpg63T 508 Savage.jpg 14KB Oct 24 2012 01:09:09 AM63T 508 Savage.jpg
63T 481 Taylor.jpg63T 481 Taylor.jpg 15KB Oct 24 2012 01:09:09 AM63T 481 Taylor.jpg
63T 400 Robinson.jpg63T 400 Robinson.jpg 14KB Oct 24 2012 01:09:09 AM63T 400 Robinson.jpg
63T 143 WS Game 2.jpg63T 143 WS Game 2.jpg 15KB Oct 24 2012 01:09:09 AM63T 143 WS Game 2.jpg
63T 167 Fregosi.jpg63T 167 Fregosi.jpg 14KB Oct 24 2012 01:09:09 AM63T 167 Fregosi.jpg
63T 475 Triandos.jpg63T 475 Triandos.jpg 15KB Oct 24 2012 01:09:09 AM63T 475 Triandos.jpg
63T 115 Yastrzemski.jpg63T 115 Yastrzemski.jpg 16KB Oct 24 2012 01:09:09 AM63T 115 Yastrzemski.jpg
63T 158 Rookie Stars.jpg63T 158 Rookie Stars.jpg 16KB Oct 24 2012 01:09:09 AM63T 158 Rookie Stars.jpg
63T 150 Podres.jpg63T 150 Podres.jpg 13KB Oct 24 2012 01:09:09 AM63T 150 Podres.jpg
63T 009 NL Strikeout Leaders.jpg63T 009 NL Strikeout Leaders.jpg 16KB Oct 24 2012 01:09:09 AM63T 009 NL Strikeout Leaders.jpg
63T 509 Checklist 7.jpg63T 509 Checklist 7.jpg 20KB Oct 24 2012 01:09:09 AM63T 509 Checklist 7.jpg
63T 512 McLish.jpg63T 512 McLish.jpg 14KB Oct 24 2012 01:09:09 AM63T 512 McLish.jpg
63T 127 Tuttle.jpg63T 127 Tuttle.jpg 19KB Oct 24 2012 01:09:09 AM63T 127 Tuttle.jpg
63T 145 WS Game 4.jpg63T 145 WS Game 4.jpg 15KB Oct 24 2012 01:09:09 AM63T 145 WS Game 4.jpg
63T 402 Vernon.jpg63T 402 Vernon.jpg 14KB Oct 24 2012 01:09:09 AM63T 402 Vernon.jpg
63T 020 Kubek.jpg63T 020 Kubek.jpg 14KB Oct 24 2012 01:09:09 AM63T 020 Kubek.jpg
63T 440 Marichal.jpg63T 440 Marichal.jpg 15KB Oct 24 2012 01:09:09 AM63T 440 Marichal.jpg
63T 560 Herbert.jpg63T 560 Herbert.jpg 19KB Oct 24 2012 01:09:09 AM63T 560 Herbert.jpg
63T 540 Clemente.jpg63T 540 Clemente.jpg 24KB Oct 24 2012 01:09:09 AM63T 540 Clemente.jpg
63T 162 Twins Team.jpg63T 162 Twins Team.jpg 16KB Oct 24 2012 01:09:09 AM63T 162 Twins Team.jpg
63T 574 Kolstad.jpg63T 574 Kolstad.jpg 18KB Oct 24 2012 01:09:09 AM63T 574 Kolstad.jpg
63T 467 Ortega.jpg63T 467 Ortega.jpg 16KB Oct 24 2012 01:09:09 AM63T 467 Ortega.jpg
63T 173 Bombers Best.jpg63T 173 Bombers Best.jpg 16KB Oct 24 2012 01:09:09 AM63T 173 Bombers Best.jpg
63T 082 Rakow.jpg63T 082 Rakow.jpg 13KB Oct 24 2012 01:09:09 AM63T 082 Rakow.jpg
63T 323 Mazeroski.jpg63T 323 Mazeroski.jpg 17KB Oct 24 2012 01:09:09 AM63T 323 Mazeroski.jpg
63T 529 Covington.jpg63T 529 Covington.jpg 15KB Oct 24 2012 01:09:09 AM63T 529 Covington.jpg
63T 476 Funk.jpg63T 476 Funk.jpg 14KB Oct 24 2012 01:09:09 AM63T 476 Funk.jpg
63T 128 Alou.jpg63T 128 Alou.jpg 14KB Oct 24 2012 01:09:09 AM63T 128 Alou.jpg
63T 448 Kralick.jpg63T 448 Kralick.jpg 15KB Oct 24 2012 01:09:09 AM63T 448 Kralick.jpg
63T 060 Howard.jpg63T 060 Howard.jpg 14KB Oct 24 2012 01:09:09 AM63T 060 Howard.jpg
63T 252 Santo.jpg63T 252 Santo.jpg 18KB Oct 24 2012 01:09:09 AM63T 252 Santo.jpg